Time;durP1;ratioP1;P1;durP2;ratioP2;P2;SDS_P1;SDS_P2;PMS_P1;PMS_P2;Temp;Humidity;BMP_temperature;BMP_pressure;BME280_temperature;BME280_humidity;BME280_pressure;Samples;Min_cycle;Max_cycle;Signal;HPM_P1;HPM_P2
2021/04/04 00:00:30;;;;;;;13.47;7.50;;;;;;;1.01;70.58;99226.98;2220684;80;21546;-77
2021/04/04 00:03:33;;;;;;;17.40;8.70;;;;;;;0.93;70.69;99226.55;2220740;80;21426;-77
2021/04/04 00:06:34;;;;;;;13.70;7.90;;;;;;;0.83;70.69;99231.95;2221187;80;21145;-78
2021/04/04 00:09:35;;;;;;;16.37;7.83;;;;;;;0.72;70.67;99236.48;2220847;80;21125;-77
2021/04/04 00:12:36;;;;;;;19.63;9.13;;;;;;;0.61;70.89;99238.45;2220940;80;21137;-77
2021/04/04 00:15:40;;;;;;;21.70;8.40;;;;;;;0.56;71.00;99232.16;2220898;80;21276;-77
2021/04/04 00:18:41;;;;;;;15.87;7.60;;;;;;;0.51;71.23;99230.13;2220504;80;21276;-77
2021/04/04 00:21:42;;;;;;;18.27;7.80;;;;;;;0.45;71.21;99231.95;2220057;80;21527;-78
2021/04/04 00:24:43;;;;;;;17.30;8.07;;;;;;;0.41;71.25;99229.12;2209952;81;21519;-78
2021/04/04 00:27:44;;;;;;;19.20;8.30;;;;;;;0.37;71.36;99225.48;2210087;81;21546;-77
2021/04/04 00:30:45;;;;;;;16.90;9.33;;;;;;;0.34;71.40;99233.02;2210028;81;21151;-78
2021/04/04 00:33:46;;;;;;;19.20;9.60;;;;;;;0.29;71.41;99236.59;2210005;81;21130;-77
2021/04/04 00:36:47;;;;;;;18.23;8.97;;;;;;;0.24;71.49;99236.73;2210041;81;21396;-78
2021/04/04 00:39:49;;;;;;;18.30;8.47;;;;;;;0.21;71.33;99236.55;2210203;81;21264;-78
2021/04/04 00:42:50;;;;;;;18.10;8.83;;;;;;;0.18;71.15;99236.77;2209908;81;21249;-78
2021/04/04 00:45:51;;;;;;;16.13;8.70;;;;;;;0.13;71.62;99242.92;2209996;81;21149;-78
2021/04/04 00:48:52;;;;;;;21.70;9.03;;;;;;;0.13;71.64;99245.88;2209998;81;21123;-78
2021/04/04 00:51:53;;;;;;;14.97;7.50;;;;;;;0.08;71.41;99244.73;2209971;81;21582;-77
2021/04/04 00:54:54;;;;;;;15.63;7.27;;;;;;;0.04;71.36;99255.21;2209880;81;21450;-78
2021/04/04 00:57:55;;;;;;;12.93;7.30;;;;;;;-0.01;71.17;99250.17;2210263;81;21265;-78
2021/04/04 01:00:56;;;;;;;15.47;7.70;;;;;;;-0.06;71.11;99253.75;2209955;81;21123;-78
2021/04/04 01:03:57;;;;;;;16.40;8.03;;;;;;;-0.16;70.91;99252.70;2209939;81;21543;-77
2021/04/04 01:06:58;;;;;;;16.80;8.63;;;;;;;-0.28;71.10;99262.23;2210352;81;21138;-78
2021/04/04 01:09:59;;;;;;;20.30;8.73;;;;;;;-0.35;71.16;99258.80;2210245;81;21249;-78
2021/04/04 01:13:00;;;;;;;14.60;8.37;;;;;;;-0.39;71.36;99259.41;2209955;81;21114;-77
2021/04/04 01:16:01;;;;;;;15.40;8.73;;;;;;;-0.42;71.12;99263.07;2210079;81;21304;-77
2021/04/04 01:19:02;;;;;;;19.73;8.63;;;;;;;-0.43;71.21;99262.19;2209941;81;21260;-77
2021/04/04 01:22:03;;;;;;;16.13;9.50;;;;;;;-0.42;71.38;99268.20;2210843;80;21276;-77
2021/04/04 01:25:04;;;;;;;18.03;8.73;;;;;;;-0.40;71.41;99269.17;2220830;80;21248;-78
2021/04/04 01:28:05;;;;;;;17.13;8.37;;;;;;;-0.47;71.08;99266.63;2220804;80;21267;-77
2021/04/04 01:31:06;;;;;;;13.43;7.67;;;;;;;-0.48;71.15;99273.84;2220486;80;21538;-77
2021/04/04 01:34:07;;;;;;;19.50;8.73;;;;;;;-0.48;71.88;99278.08;2220562;80;21419;-78
2021/04/04 01:37:10;;;;;;;24.50;9.57;;;;;;;-0.49;72.18;99273.34;2220608;80;21261;-77
2021/04/04 01:40:11;;;;;;;22.70;10.13;;;;;;;-0.48;72.33;99280.64;2220641;80;21268;-77
2021/04/04 01:43:12;;;;;;;17.20;9.73;;;;;;;-0.45;72.47;99289.41;2220608;80;21229;-77
2021/04/04 01:46:13;;;;;;;21.10;10.03;;;;;;;-0.40;72.55;99289.70;2220814;80;21256;-77
2021/04/04 01:49:14;;;;;;;22.50;10.07;;;;;;;-0.36;72.47;99287.81;2220723;80;21551;-77
2021/04/04 01:52:15;;;;;;;18.10;9.23;;;;;;;-0.34;72.40;99292.64;2221305;80;21553;-77
2021/04/04 01:55:16;;;;;;;14.63;8.50;;;;;;;-0.36;72.33;99292.94;2220670;80;21459;-77
2021/04/04 01:58:17;;;;;;;17.33;9.17;;;;;;;-0.38;72.34;99287.72;2220785;80;21264;-77
2021/04/04 02:01:18;;;;;;;16.97;9.37;;;;;;;-0.38;72.31;99289.39;2220711;80;21138;-78
2021/04/04 02:04:19;;;;;;;19.67;9.47;;;;;;;-0.41;72.12;99289.20;2220872;80;21248;-77
2021/04/04 02:07:21;;;;;;;17.53;9.10;;;;;;;-0.42;71.91;99290.89;2220963;80;21416;-77
2021/04/04 02:10:22;;;;;;;16.03;8.97;;;;;;;-0.42;71.94;99301.54;2220703;80;21566;-76
2021/04/04 02:13:23;;;;;;;19.47;9.57;;;;;;;-0.47;72.18;99302.94;2220718;80;21137;-77
2021/04/04 02:16:24;;;;;;;22.97;11.37;;;;;;;-0.55;72.32;99298.61;2221057;80;21653;-77
2021/04/04 02:19:25;;;;;;;24.03;10.53;;;;;;;-0.60;72.35;99299.12;2220828;80;21125;-77
2021/04/04 02:22:26;;;;;;;18.63;9.77;;;;;;;-0.62;72.63;99304.55;2219360;80;21284;-76
2021/04/04 02:25:27;;;;;;;16.53;9.33;;;;;;;-0.65;72.67;99307.41;2210199;81;21732;-77
2021/04/04 02:28:30;;;;;;;19.40;9.50;;;;;;;-0.65;72.80;99302.28;2210126;81;21296;-77
2021/04/04 02:31:31;;;;;;;19.27;10.73;;;;;;;-0.68;72.82;99302.48;2210226;81;21273;-77
2021/04/04 02:34:33;;;;;;;28.37;13.57;;;;;;;-0.70;73.00;99303.67;2210023;81;21292;-77
2021/04/04 02:37:35;;;;;;;29.47;13.83;;;;;;;-0.69;73.20;99305.44;2210202;80;21130;-77
2021/04/04 02:40:36;;;;;;;24.80;13.50;;;;;;;-0.71;73.17;99300.61;2210170;80;21252;-77
2021/04/04 02:43:37;;;;;;;28.03;13.63;;;;;;;-0.77;73.18;99301.51;2210117;80;21126;-77
2021/04/04 02:46:40;;;;;;;33.37;14.80;;;;;;;-0.80;73.25;99305.16;2210202;80;21256;-77
2021/04/04 02:49:41;;;;;;;39.60;15.07;;;;;;;-0.84;73.23;99303.19;2210179;80;21138;-77
2021/04/04 02:52:42;;;;;;;41.57;16.53;;;;;;;-0.86;73.36;99312.46;2210045;80;21375;-77
2021/04/04 02:55:43;;;;;;;38.60;16.50;;;;;;;-0.88;73.38;99307.99;2210047;80;21162;-78
2021/04/04 02:58:44;;;;;;;36.50;14.97;;;;;;;-0.89;73.33;99307.11;2210027;80;21264;-77
2021/04/04 03:01:45;;;;;;;32.33;14.97;;;;;;;-0.92;73.31;99306.91;2210183;80;21276;-77
2021/04/04 03:04:46;;;;;;;34.97;15.37;;;;;;;-0.98;73.35;99308.69;2210204;80;21416;-77
2021/04/04 03:07:47;;;;;;;39.17;16.40;;;;;;;-1.03;73.41;99307.50;2210406;81;21138;-77
2021/04/04 03:10:50;;;;;;;36.97;15.37;;;;;;;-1.07;73.49;99318.73;2210270;80;21264;-77
2021/04/04 03:13:51;;;;;;;30.30;15.87;;;;;;;-1.09;73.58;99319.92;2210148;80;21245;-77
2021/04/04 03:16:52;;;;;;;30.47;14.83;;;;;;;-1.12;73.67;99325.24;2210097;80;21284;-77
2021/04/04 03:19:53;;;;;;;27.77;14.13;;;;;;;-1.14;73.68;99322.97;2210045;80;21255;-77
2021/04/04 03:22:54;;;;;;;25.27;13.30;;;;;;;-1.15;73.67;99317.36;2211981;80;21149;-77
2021/04/04 03:25:55;;;;;;;26.97;13.77;;;;;;;-1.18;73.75;99327.41;2217339;80;21256;-76
2021/04/04 03:28:56;;;;;;;26.93;12.87;;;;;;;-1.24;73.77;99325.33;2217199;80;21126;-77
2021/04/04 03:31:57;;;;;;;21.90;12.03;;;;;;;-1.30;73.70;99330.94;2217062;80;21526;-77
2021/04/04 03:34:59;;;;;;;25.90;12.77;;;;;;;-1.34;73.75;99330.64;2217129;80;21158;-77
2021/04/04 03:38:00;;;;;;;24.57;12.00;;;;;;;-1.37;73.90;99326.59;2217289;80;21260;-77
2021/04/04 03:41:01;;;;;;;24.43;11.43;;;;;;;-1.37;73.92;99327.48;2217205;80;21146;-77
2021/04/04 03:44:02;;;;;;;23.20;11.40;;;;;;;-1.38;73.94;99326.98;2217180;80;21260;-77
2021/04/04 03:47:03;;;;;;;23.13;11.60;;;;;;;-1.39;73.89;99329.05;2217416;80;21265;-78
2021/04/04 03:50:04;;;;;;;20.97;10.63;;;;;;;-1.40;73.91;99326.00;2217343;80;21260;-77
2021/04/04 03:53:06;;;;;;;22.57;12.33;;;;;;;-1.42;73.93;99326.30;2217380;80;21130;-77
2021/04/04 03:56:07;;;;;;;29.50;13.60;;;;;;;-1.43;74.00;99340.27;2217498;80;21182;-77
2021/04/04 03:59:08;;;;;;;30.03;14.00;;;;;;;-1.48;74.02;99338.69;2217260;80;21260;-78
2021/04/04 04:02:09;;;;;;;35.63;14.87;;;;;;;-1.48;74.03;99333.56;2217314;80;21503;-77
2021/04/04 04:05:10;;;;;;;29.23;12.80;;;;;;;-1.48;74.04;99324.61;2217342;80;21268;-77
2021/04/04 04:08:11;;;;;;;25.33;12.43;;;;;;;-1.46;74.00;99328.16;2217554;80;21126;-77
2021/04/04 04:11:12;;;;;;;21.83;12.40;;;;;;;-1.44;73.88;99326.58;2217219;80;21272;-78
2021/04/04 04:14:13;;;;;;;27.33;13.10;;;;;;;-1.44;73.98;99330.42;2217613;80;21260;-77
2021/04/04 04:17:14;;;;;;;26.87;13.03;;;;;;;-1.46;74.05;99337.12;2217786;80;21145;-77
2021/04/04 04:20:15;;;;;;;29.60;12.50;;;;;;;-1.47;74.17;99341.74;2217613;80;21407;-77
2021/04/04 04:23:16;;;;;;;20.43;11.67;;;;;;;-1.46;74.33;99346.08;2218037;80;21276;-77
2021/04/04 04:26:17;;;;;;;25.07;11.40;;;;;;;-1.48;74.25;99351.48;2220794;80;21130;-77
2021/04/04 04:29:18;;;;;;;22.90;11.30;;;;;;;-1.46;74.33;99356.72;2220640;80;21566;-77
2021/04/04 04:32:20;;;;;;;23.70;12.23;;;;;;;-1.44;74.23;99353.47;2220697;80;21550;-77
2021/04/04 04:35:21;;;;;;;23.83;11.77;;;;;;;-1.40;73.93;99355.45;2220958;80;21316;-77
2021/04/04 04:38:24;;;;;;;22.60;10.83;;;;;;;-1.37;73.55;99358.61;2220689;80;21248;-77
2021/04/04 04:41:26;;;;;;;25.00;11.67;;;;;;;-1.35;73.43;99359.59;2220654;80;21259;-76
2021/04/04 04:44:27;;;;;;;18.13;10.77;;;;;;;-1.29;73.43;99357.05;2220799;80;21134;-77
2021/04/04 04:47:28;;;;;;;25.70;11.53;;;;;;;-1.24;73.25;99353.91;2220690;80;21546;-77
2021/04/04 04:50:29;;;;;;;20.97;11.20;;;;;;;-1.18;73.19;99352.63;2220863;80;21102;-77
2021/04/04 04:53:30;;;;;;;27.47;14.03;;;;;;;-1.10;73.23;99353.13;2221289;80;21679;-79
2021/04/04 04:56:31;;;;;;;24.97;11.40;;;;;;;0.91;87.96;99359.23;2221236;80;21456;-78
2021/04/04 04:59:32;;;;;;;36.33;21.70;;;;;;;3.89;88.97;99344.36;2220696;80;21256;-78
2021/04/04 05:02:33;;;;;;;46.47;25.63;;;;;;;2.96;73.74;99340.28;2220714;80;21241;-77
2021/04/04 05:05:34;;;;;;;48.30;21.47;;;;;;;2.01;70.94;99344.40;2220867;80;21094;-78
2021/04/04 05:08:35;;;;;;;40.63;18.20;;;;;;;1.39;70.39;99349.95;2220149;80;21260;-79
2021/04/04 05:11:36;;;;;;;34.33;17.77;;;;;;;0.99;70.50;99356.70;2220059;80;21229;-77
2021/04/04 05:14:37;;;;;;;33.17;18.67;;;;;;;0.79;70.76;99359.38;2221063;80;21168;-78
2021/04/04 05:17:38;;;;;;;33.27;16.27;;;;;;;0.74;70.89;99359.91;2220730;80;21129;-77
2021/04/04 05:20:39;;;;;;;27.20;14.53;;;;;;;0.76;71.05;99354.46;2220646;80;21550;-78
2021/04/04 05:23:40;;;;;;;30.97;14.97;;;;;;;0.84;70.90;99363.10;2217458;80;21260;-77
2021/04/04 05:26:41;;;;;;;29.00;14.10;;;;;;;0.90;70.90;99365.17;2210099;80;21252;-77
2021/04/04 05:29:42;;;;;;;36.17;17.17;;;;;;;0.92;70.89;99360.61;2210015;80;21542;-78
2021/04/04 05:32:43;;;;;;;33.70;16.47;;;;;;;0.92;70.87;99365.75;2210079;80;21264;-77
2021/04/04 05:35:44;;;;;;;29.03;15.50;;;;;;;1.01;70.89;99361.94;2210080;81;21193;-78
2021/04/04 05:38:46;;;;;;;31.17;16.30;;;;;;;0.98;70.80;99358.80;2210076;80;21244;-78
2021/04/04 05:41:47;;;;;;;34.77;16.90;;;;;;;1.01;70.79;99362.83;2210201;80;21126;-78
2021/04/04 05:44:48;;;;;;;31.63;17.30;;;;;;;1.05;70.79;99362.59;2210061;81;21260;-78
2021/04/04 05:47:52;;;;;;;27.90;15.17;;;;;;;1.13;70.91;99353.63;2210151;80;21267;-78
2021/04/04 05:50:52;;;;;;;22.60;13.30;;;;;;;1.22;70.60;99353.75;2209779;81;21276;-79
2021/04/04 05:53:54;;;;;;;23.83;13.23;;;;;;;1.40;70.50;99354.30;2210033;80;21292;-78
2021/04/04 05:56:55;;;;;;;28.33;15.70;;;;;;;1.54;70.21;99352.97;2210026;81;21288;-78
2021/04/04 05:59:56;;;;;;;30.43;17.00;;;;;;;1.62;70.14;99346.96;2209992;80;21146;-78
2021/04/04 06:02:57;;;;;;;33.80;14.77;;;;;;;1.72;70.13;99350.52;2210028;80;21248;-78
2021/04/04 06:05:58;;;;;;;27.67;15.03;;;;;;;1.89;69.94;99345.91;2210278;80;21137;-78
2021/04/04 06:08:59;;;;;;;25.50;12.00;;;;;;;2.02;69.92;99350.44;2210088;80;21133;-78
2021/04/04 06:12:00;;;;;;;21.03;12.60;;;;;;;2.15;69.58;99348.59;2209315;80;21117;-78
2021/04/04 06:15:01;;;;;;;31.77;14.17;;;;;;;2.37;69.48;99344.55;2208925;80;21146;-78
2021/04/04 06:18:02;;;;;;;18.17;10.83;;;;;;;2.54;69.17;99345.91;2209484;80;21126;-78
2021/04/04 06:21:04;;;;;;;17.40;10.60;;;;;;;2.67;68.77;99348.73;2209629;80;21126;-78
2021/04/04 06:24:05;;;;;;;19.10;8.97;;;;;;;2.86;68.63;99342.81;2209739;80;21261;-78
2021/04/04 06:27:06;;;;;;;16.23;8.90;;;;;;;3.05;67.94;99345.89;2209900;81;21240;-77
2021/04/04 06:30:20;;;;;;;20.93;10.07;;;;;;;3.19;67.37;99347.05;2210057;81;21130;-78
2021/04/04 06:33:11;;;;;;;19.63;10.77;;;;;;;3.19;67.33;99345.76;2208310;80;21270;-78
2021/04/04 06:36:12;;;;;;;17.47;10.73;;;;;;;3.31;66.87;99347.16;2210356;80;21203;-78
2021/04/04 06:39:13;;;;;;;18.17;10.20;;;;;;;3.31;66.87;99347.16;2210255;80;21863;-78
2021/04/04 06:42:14;;;;;;;17.30;9.57;;;;;;;3.51;66.68;99357.66;2210687;80;21099;-79
2021/04/04 06:45:15;;;;;;;18.97;9.43;;;;;;;3.88;66.19;99354.63;2210338;81;21244;-78
2021/04/04 06:48:16;;;;;;;15.50;9.27;;;;;;;3.94;66.15;99361.36;2210332;81;21146;-78
2021/04/04 06:51:17;;;;;;;17.03;9.83;;;;;;;4.32;65.81;99361.39;2210183;81;21118;-78
2021/04/04 06:54:19;;;;;;;13.73;7.87;;;;;;;4.89;65.31;99362.19;2210141;81;21543;-78
2021/04/04 06:57:20;;;;;;;12.20;7.43;;;;;;;5.29;64.48;99363.88;2210142;81;21252;-78
2021/04/04 07:00:21;;;;;;;12.70;7.63;;;;;;;5.32;63.55;99371.34;2210115;81;21134;-77
2021/04/04 07:03:22;;;;;;;15.13;7.67;;;;;;;5.03;62.93;99362.35;2210449;81;21138;-78
2021/04/04 07:06:23;;;;;;;15.20;8.40;;;;;;;5.03;62.93;99362.35;2210465;81;21531;-79
2021/04/04 07:09:24;;;;;;;13.63;7.30;;;;;;;5.02;63.33;99359.29;2210123;81;21252;-78
2021/04/04 07:12:25;;;;;;;11.47;6.63;;;;;;;5.35;63.16;99368.00;2210140;81;21131;-78
2021/04/04 07:15:26;;;;;;;8.73;6.50;;;;;;;5.58;62.65;99366.34;2210315;81;21300;-78
2021/04/04 07:18:27;;;;;;;13.57;6.80;;;;;;;5.72;60.92;99372.53;2210182;81;21252;-78
2021/04/04 07:21:28;;;;;;;8.37;6.00;;;;;;;5.86;60.58;99374.36;2210021;81;21273;-78
2021/04/04 07:24:29;;;;;;;14.50;6.63;;;;;;;5.53;59.33;99378.22;2214497;80;21400;-78
2021/04/04 07:27:30;;;;;;;11.63;6.47;;;;;;;5.21;60.76;99375.20;2220713;80;21240;-78
2021/04/04 07:30:33;;;;;;;10.27;6.67;;;;;;;5.50;61.02;99378.98;2220796;80;21113;-78
2021/04/04 07:33:34;;;;;;;15.07;5.27;;;;;;;5.97;59.45;99386.05;2220960;80;21260;-77
2021/04/04 07:36:35;;;;;;;10.37;5.80;;;;;;;5.97;59.45;99386.05;2220831;80;21296;-78
2021/04/04 07:39:36;;;;;;;11.30;5.90;;;;;;;6.10;59.22;99380.08;2220794;80;21260;-78
2021/04/04 07:42:37;;;;;;;11.03;4.50;;;;;;;6.31;58.19;99378.29;2220798;80;21256;-79
2021/04/04 07:45:38;;;;;;;10.77;5.87;;;;;;;6.15;55.55;99382.44;2221257;80;21263;-78
2021/04/04 07:48:39;;;;;;;8.87;5.07;;;;;;;5.98;57.16;99386.53;2221255;80;21138;-78
2021/04/04 07:51:40;;;;;;;8.00;5.13;;;;;;;5.92;56.50;99384.11;2221012;80;21252;-78
2021/04/04 07:54:41;;;;;;;8.00;4.43;;;;;;;6.08;56.26;99382.61;2220911;80;21311;-78
2021/04/04 07:57:43;;;;;;;5.73;3.33;;;;;;;6.22;54.18;99384.02;2221084;80;21279;-78
2021/04/04 08:00:44;;;;;;;6.63;4.03;;;;;;;6.30;53.33;99386.89;2220764;80;21244;-78
2021/04/04 08:03:45;;;;;;;7.90;3.43;;;;;;;6.29;53.74;99380.83;2220843;80;21260;-77
2021/04/04 08:06:46;;;;;;;6.27;3.80;;;;;;;6.45;53.34;99383.56;2220776;80;21447;-77
2021/04/04 08:09:47;;;;;;;5.87;3.60;;;;;;;6.37;51.48;99390.18;2220683;80;21592;-78
2021/04/04 08:12:48;;;;;;;7.83;4.40;;;;;;;6.37;51.80;99383.28;2220707;80;21284;-77
2021/04/04 08:15:50;;;;;;;6.60;3.40;;;;;;;6.41;52.31;99377.80;2220852;80;21292;-77
2021/04/04 08:18:51;;;;;;;7.60;4.00;;;;;;;6.12;51.47;99379.31;2220929;80;21145;-78
2021/04/04 08:21:53;;;;;;;5.73;3.10;;;;;;;6.28;50.13;99375.17;2221182;80;21273;-79
2021/04/04 08:24:54;;;;;;;5.20;2.60;;;;;;;6.28;49.77;99380.35;2216136;80;21169;-79
2021/04/04 08:27:55;;;;;;;5.50;3.50;;;;;;;6.27;49.89;99373.81;2210304;81;21257;-78
2021/04/04 08:30:56;;;;;;;5.63;3.40;;;;;;;6.55;50.07;99368.81;2210230;81;21456;-79
2021/04/04 08:33:57;;;;;;;7.17;3.57;;;;;;;6.78;50.18;99368.33;2210168;81;21273;-79
2021/04/04 08:36:58;;;;;;;5.27;3.17;;;;;;;7.03;49.63;99358.41;2210151;81;21162;-78
2021/04/04 08:39:59;;;;;;;5.27;3.27;;;;;;;6.98;47.29;99363.44;2210250;81;21248;-78
2021/04/04 08:43:00;;;;;;;5.20;2.77;;;;;;;6.66;47.83;99366.18;2210146;81;21606;-79
2021/04/04 08:46:02;;;;;;;5.97;2.67;;;;;;;6.76;48.13;99365.21;2209622;81;21490;-78
2021/04/04 08:49:03;;;;;;;6.53;2.80;;;;;;;6.54;47.41;99370.94;2210365;81;21165;-79
2021/04/04 08:52:04;;;;;;;5.17;2.80;;;;;;;6.49;47.66;99367.70;2209918;81;21284;-78
2021/04/04 08:55:05;;;;;;;3.73;2.30;;;;;;;6.31;48.46;99362.32;2209833;81;21166;-78
2021/04/04 08:58:06;;;;;;;6.03;2.43;;;;;;;6.70;46.93;99372.36;2209774;81;21122;-78
2021/04/04 09:01:07;;;;;;;3.83;2.37;;;;;;;6.97;46.20;99360.37;2209852;81;21264;-78
2021/04/04 09:04:08;;;;;;;3.23;2.27;;;;;;;7.16;43.94;99359.28;2210587;81;21241;-79
2021/04/04 09:07:10;;;;;;;4.33;2.40;;;;;;;7.18;43.32;99365.83;2210701;81;21134;-78
2021/04/04 09:10:14;;;;;;;2.40;1.60;;;;;;;6.80;43.83;99367.97;2210438;81;21142;-78
2021/04/04 09:13:15;;;;;;;4.20;2.03;;;;;;;6.88;43.21;99357.84;2210570;81;21249;-79
2021/04/04 09:16:17;;;;;;;2.77;1.90;;;;;;;6.82;43.33;99357.22;2210227;81;21150;-78
2021/04/04 09:19:18;;;;;;;2.10;1.90;;;;;;;7.01;41.28;99361.36;2210502;81;21284;-79
2021/04/04 09:22:19;;;;;;;2.03;1.70;;;;;;;7.09;41.95;99356.44;2210210;81;21142;-78
2021/04/04 09:25:20;;;;;;;2.10;1.87;;;;;;;7.10;41.30;99346.10;2214163;80;21267;-77
2021/04/04 09:28:21;;;;;;;2.27;1.60;;;;;;;7.21;40.27;99338.25;2217278;80;21399;-79
2021/04/04 09:31:22;;;;;;;3.23;1.77;;;;;;;7.53;40.47;99339.70;2217518;80;21256;-78
2021/04/04 09:34:24;;;;;;;4.53;2.53;;;;;;;7.67;40.74;99339.30;2217865;80;21138;-78
2021/04/04 09:37:25;;;;;;;4.60;2.13;;;;;;;7.78;40.04;99347.84;2218138;80;21555;-78
2021/04/04 09:40:26;;;;;;;2.27;1.90;;;;;;;7.77;38.26;99342.18;2217561;80;21261;-79
2021/04/04 09:43:27;;;;;;;2.10;1.70;;;;;;;7.65;37.42;99337.48;2217751;80;21137;-79
2021/04/04 09:46:28;;;;;;;2.87;1.73;;;;;;;7.71;39.17;99340.69;2217931;80;21236;-79
2021/04/04 09:49:29;;;;;;;2.20;1.80;;;;;;;7.76;37.02;99346.50;2217676;80;21519;-79
2021/04/04 09:52:32;;;;;;;3.60;2.53;;;;;;;7.82;37.17;99331.55;2217592;80;21237;-79
2021/04/04 09:55:33;;;;;;;4.77;2.33;;;;;;;7.79;36.43;99327.52;2217322;80;21836;-78
2021/04/04 09:58:34;;;;;;;3.67;2.10;;;;;;;7.86;36.38;99327.78;2217296;80;21252;-78
2021/04/04 10:01:35;;;;;;;2.83;2.10;;;;;;;7.83;37.16;99324.20;2217528;80;21150;-78
2021/04/04 10:04:36;;;;;;;2.10;1.90;;;;;;;7.96;38.63;99322.44;2217374;80;21264;-78
2021/04/04 10:07:37;;;;;;;4.90;2.57;;;;;;;8.07;37.63;99317.14;2216882;80;21146;-79
2021/04/04 10:10:38;;;;;;;3.53;1.80;;;;;;;8.12;38.96;99309.47;2217487;80;21118;-77
2021/04/04 10:13:40;;;;;;;3.77;2.80;;;;;;;8.40;37.51;99300.76;2217485;80;21122;-77
2021/04/04 10:16:41;;;;;;;2.63;1.70;;;;;;;8.22;38.42;99299.37;2217515;80;21271;-78
2021/04/04 10:19:42;;;;;;;4.47;2.77;;;;;;;8.41;35.69;99302.52;2217468;80;21118;-78
2021/04/04 10:22:43;;;;;;;4.90;2.97;;;;;;;8.66;37.95;99287.15;2217458;80;21153;-78
2021/04/04 10:25:44;;;;;;;3.23;2.00;;;;;;;8.85;34.90;99301.14;2212980;80;21161;-79
2021/04/04 10:28:45;;;;;;;4.80;2.80;;;;;;;9.08;36.38;99295.20;2210256;81;21252;-78
2021/04/04 10:31:47;;;;;;;6.47;4.63;;;;;;;9.29;37.07;99287.91;2210167;81;21138;-78
2021/04/04 10:34:48;;;;;;;3.33;2.43;;;;;;;9.48;36.32;99294.44;2210641;81;21480;-79
2021/04/04 10:37:52;;;;;;;3.83;2.40;;;;;;;9.12;35.18;99298.34;2210372;81;21261;-78
2021/04/04 10:40:53;;;;;;;3.42;2.70;;;;;;;8.62;35.59;99294.00;2210426;81;21261;-77
2021/04/04 10:43:54;;;;;;;4.57;2.30;;;;;;;8.52;35.84;99295.47;2210314;81;21145;-78
2021/04/04 10:46:55;;;;;;;4.47;3.63;;;;;;;8.36;35.02;99291.11;2210305;81;21543;-77
2021/04/04 10:49:56;;;;;;;3.10;2.50;;;;;;;8.00;35.50;99289.20;2210202;81;21252;-77
2021/04/04 10:53:00;;;;;;;2.23;2.00;;;;;;;8.08;36.26;99291.60;2210516;81;21091;-78
2021/04/04 10:56:01;;;;;;;1.77;1.67;;;;;;;8.64;35.99;99281.91;2210474;81;21441;-78
2021/04/04 10:59:05;;;;;;;3.37;2.10;;;;;;;9.15;34.14;99277.59;2210352;81;21142;-78
2021/04/04 11:02:06;;;;;;;1.70;1.60;;;;;;;9.62;35.14;99275.24;2210703;81;21264;-79
2021/04/04 11:05:07;;;;;;;3.07;2.23;;;;;;;9.66;32.11;99283.16;2210650;81;21396;-78
2021/04/04 11:08:08;;;;;;;3.30;1.80;;;;;;;9.22;34.69;99275.59;2210601;81;21268;-79
2021/04/04 11:11:09;;;;;;;4.33;3.07;;;;;;;9.05;35.16;99271.27;2210826;81;21110;-78
2021/04/04 11:14:10;;;;;;;2.40;2.10;;;;;;;8.92;34.22;99271.39;2210621;81;21526;-79
2021/04/04 11:17:11;;;;;;;3.13;2.00;;;;;;;8.77;34.44;99276.20;2210407;81;21296;-78
2021/04/04 11:20:12;;;;;;;3.30;2.20;;;;;;;8.77;34.98;99257.98;2210124;81;21169;-78
2021/04/04 11:23:13;;;;;;;5.43;2.80;;;;;;;8.88;33.80;99256.54;2210341;81;21559;-79
2021/04/04 11:26:14;;;;;;;2.83;2.10;;;;;;;9.02;33.38;99258.18;2215515;80;21616;-77
2021/04/04 11:29:16;;;;;;;3.23;2.00;;;;;;;9.32;33.50;99257.15;2217503;80;21134;-78
2021/04/04 11:32:17;;;;;;;2.50;2.00;;;;;;;9.25;31.79;99261.33;2217529;80;21264;-78
2021/04/04 11:35:18;;;;;;;5.40;3.10;;;;;;;9.26;33.50;99264.39;2217922;80;21138;-78
2021/04/04 11:38:19;;;;;;;5.63;3.77;;;;;;;9.06;33.98;99256.53;2217442;80;21094;-78
2021/04/04 11:41:20;;;;;;;6.97;3.17;;;;;;;8.92;33.97;99258.38;2217530;80;21536;-78
2021/04/04 11:44:23;;;;;;;2.40;1.93;;;;;;;9.11;34.57;99248.41;2217600;80;21098;-78
2021/04/04 11:47:24;;;;;;;3.52;2.20;;;;;;;9.56;32.55;99241.68;2217686;80;21280;-77
2021/04/04 11:50:25;;;;;;;1.87;1.57;;;;;;;9.93;31.95;99227.24;2217358;80;21535;-77
2021/04/04 11:53:26;;;;;;;1.42;1.32;;;;;;;10.24;30.18;99220.93;2217447;80;21257;-79
2021/04/04 11:56:27;;;;;;;7.00;3.17;;;;;;;10.13;32.02;99218.96;2217764;80;21280;-78
2021/04/04 11:59:28;;;;;;;3.40;2.10;;;;;;;9.82;30.62;99221.80;2217470;80;21248;-78
2021/04/04 12:02:29;;;;;;;3.00;2.22;;;;;;;9.57;32.29;99221.28;2217541;80;21265;-78
2021/04/04 12:05:30;;;;;;;2.00;1.80;;;;;;;9.36;33.54;99219.90;2217659;80;21118;-78
2021/04/04 12:08:32;;;;;;;2.80;1.90;;;;;;;9.13;33.34;99229.79;2217783;80;21264;-79
2021/04/04 12:11:33;;;;;;;2.87;1.93;;;;;;;8.92;34.93;99220.62;2217758;80;21244;-78
2021/04/04 12:14:34;;;;;;;3.07;2.10;;;;;;;8.75;33.48;99224.53;2217333;80;21252;-77
2021/04/04 12:17:35;;;;;;;2.40;1.97;;;;;;;8.66;34.96;99210.38;2217322;80;21149;-78
2021/04/04 12:20:36;;;;;;;1.90;1.80;;;;;;;8.70;33.37;99204.02;2217319;80;21110;-77
2021/04/04 12:23:37;;;;;;;4.20;2.27;;;;;;;8.60;32.89;99196.80;2217401;80;21519;-78
2021/04/04 12:26:38;;;;;;;4.77;2.20;;;;;;;8.78;33.71;99192.08;2217242;80;21146;-79
2021/04/04 12:29:39;;;;;;;3.43;2.10;;;;;;;9.07;33.55;99195.38;2217213;80;21253;-78
2021/04/04 12:32:40;;;;;;;2.60;2.00;;;;;;;9.62;33.61;99178.37;2217548;80;21125;-77
2021/04/04 12:35:41;;;;;;;4.50;2.37;;;;;;;10.00;33.46;99182.18;2217800;80;21161;-77
2021/04/04 12:38:42;;;;;;;3.95;2.47;;;;;;;10.37;32.17;99179.86;2217260;80;21123;-78
2021/04/04 12:41:43;;;;;;;3.33;1.90;;;;;;;10.14;32.62;99174.19;2217264;80;21248;-78
2021/04/04 12:44:44;;;;;;;3.90;2.20;;;;;;;9.74;32.75;99176.45;2217413;80;21098;-78
2021/04/04 12:47:46;;;;;;;4.33;2.13;;;;;;;9.54;33.19;99166.92;2217673;80;21142;-79
2021/04/04 12:50:47;;;;;;;3.13;1.97;;;;;;;9.14;33.77;99176.44;2217564;80;21133;-77
2021/04/04 12:53:48;;;;;;;2.70;2.23;;;;;;;8.79;33.61;99168.23;2217861;80;21130;-78
2021/04/04 12:56:49;;;;;;;2.83;2.00;;;;;;;8.51;33.74;99161.02;2217121;80;21582;-78
2021/04/04 12:59:50;;;;;;;2.00;1.80;;;;;;;8.41;35.17;99159.03;2217165;80;21134;-78
2021/04/04 13:02:51;;;;;;;2.77;2.00;;;;;;;8.70;34.12;99153.27;2217496;80;21260;-78
2021/04/04 13:05:52;;;;;;;4.87;2.40;;;;;;;9.05;34.44;99143.68;2217677;80;21272;-78
2021/04/04 13:08:54;;;;;;;2.43;2.13;;;;;;;9.37;33.74;99139.17;2217199;80;21550;-78
2021/04/04 13:11:55;;;;;;;2.27;2.03;;;;;;;9.61;33.25;99136.65;2217335;80;21251;-77
2021/04/04 13:14:56;;;;;;;2.37;1.92;;;;;;;9.83;32.43;99124.48;2217740;80;21431;-78
2021/04/04 13:17:57;;;;;;;3.00;2.10;;;;;;;10.03;31.67;99121.83;2217372;80;21257;-78
2021/04/04 13:20:58;;;;;;;3.12;2.22;;;;;;;10.18;30.94;99123.41;2217211;80;21260;-78
2021/04/04 13:23:59;;;;;;;3.15;2.17;;;;;;;10.34;31.46;99111.54;2217574;80;21138;-78
2021/04/04 13:27:00;;;;;;;3.95;2.85;;;;;;;10.43;31.46;99113.45;2211764;80;21119;-78
2021/04/04 13:30:01;;;;;;;3.85;3.22;;;;;;;10.11;31.43;99108.50;2210283;81;21537;-79
2021/04/04 13:33:02;;;;;;;6.47;3.90;;;;;;;10.03;32.21;99106.18;2210289;81;21408;-77
2021/04/04 13:36:03;;;;;;;4.83;2.50;;;;;;;9.94;31.51;99104.70;2210027;81;21285;-78
2021/04/04 13:39:04;;;;;;;3.80;2.90;;;;;;;9.73;31.55;99097.79;2210019;81;21253;-78
2021/04/04 13:42:05;;;;;;;9.57;3.80;;;;;;;9.77;32.38;99095.70;2210160;81;21377;-78
2021/04/04 13:45:06;;;;;;;7.20;3.40;;;;;;;9.82;33.02;99092.75;2210510;81;21519;-78
2021/04/04 13:48:07;;;;;;;6.57;3.67;;;;;;;9.93;33.05;99095.55;2210392;81;21103;-79
2021/04/04 13:51:08;;;;;;;3.80;2.80;;;;;;;9.86;31.81;99091.53;2210294;81;21245;-78
2021/04/04 13:54:10;;;;;;;5.47;3.27;;;;;;;9.72;32.38;99082.58;2210345;81;21539;-78
2021/04/04 13:57:11;;;;;;;2.97;2.33;;;;;;;9.68;32.33;99079.45;2210243;81;21149;-77
2021/04/04 14:00:12;;;;;;;4.23;2.43;;;;;;;9.90;32.12;99071.61;2210298;81;21273;-78
2021/04/04 14:03:13;;;;;;;4.83;2.73;;;;;;;10.07;31.68;99074.09;2210724;81;21243;-77
2021/04/04 14:06:14;;;;;;;3.80;2.90;;;;;;;9.98;31.70;99070.44;2210405;81;21427;-77
2021/04/04 14:09:15;;;;;;;4.53;2.58;;;;;;;9.82;30.99;99064.95;2210388;81;21126;-78